• Join FlightAware (Why Join?)
  • Login
  • US Flag 
04:56PM EDT


 

Airport Tracker/Info


-or-


 

Live Flight TrackerFlight Track Log ✈ SWA1570 ✈ 17-May-2013 ✈ KSAN - KSMF

Flight Track Log - Related Links

Times and Time Zones

All times are in EDT time to prevent confusion due to time zone crossing. See the SWA1570 flight status page for this flight to view local times or setup timezone preferences in your user account.

Time Position Orientation Groundspeed Altitude Reporting Facility
EDT Latitude Longitude Course Direction KTS MPH feet Rate Location/Type
12:18PM 32.7433 -117.2153 310° West 200 230 1,600  Level Los Angeles Center
12:19PM 32.7794 -117.2794 304° West 233 268 5,000 3,840 Climbing Los Angeles Center
12:20PM 32.8206 -117.3494 305° West 257 296 9,500 3,660 Climbing Los Angeles Center
12:21PM 32.8819 -117.4428 308° West 294 338 12,700 3,360 Climbing Los Angeles Center
12:22PM 32.9589 -117.5142 322° Northwest 348 400 16,500 3,480 Climbing Los Angeles Center
12:23PM 33.0289 -117.5972 315° West 357 411 19,900 3,060 Climbing Los Angeles Center
12:24PM 33.0610 -117.6520 310° West  Level FlightAware Approximate
12:24PM 33.1022 -117.7133 307° West 364 419 22,900  Level Los Angeles Center
12:25PM 33.1675 -117.8142 308° West 382 440 25,700 2,460 Climbing Los Angeles Center
12:27PM 33.2139 -117.9347 295° West 398 458 28,000 2,160 Climbing Los Angeles Center
12:28PM 33.3025 -118.0128 324° Northwest 409 471 30,300 1,920 Climbing Los Angeles Center
12:29PM 33.4131 -118.0661 338° Northwest 426 490 32,000 1,980 Climbing Los Angeles Center
12:30PM 33.5211 -118.1178 338° Northwest 421 484 34,400 2,160 Climbing Los Angeles Center
12:31PM 33.6503 -118.1803 338° Northwest 420 483 36,500 1,800 Climbing Los Angeles Center
12:32PM 33.7650 -118.2358 338° Northwest 419 482 38,200 1,500 Climbing Los Angeles Center
12:33PM 33.8700 -118.2881 338° Northwest 413 475 39,600 840 Climbing Los Angeles Center
12:34PM 33.9836 -118.3425 338° Northwest 412 474 40,000 180 Climbing Los Angeles Center
12:35PM 34.0889 -118.3947 338° Northwest 411 473 40,000  Level Los Angeles Center
12:36PM 34.1953 -118.4467 338° Northwest 412 474 40,000  Level Los Angeles Center
12:37PM 34.3011 -118.4989 338° Northwest 413 475 40,000  Level Los Angeles Center
12:38PM 34.4064 -118.5517 338° Northwest 412 474 40,000  Level Los Angeles Center
12:39PM 34.5328 -118.6142 338° Northwest 410 472 40,000  Level Los Angeles Center
12:40PM 34.6369 -118.6658 338° Northwest 408 470 40,000  Level Los Angeles Center
12:41PM 34.7425 -118.7183 338° Northwest 411 473 40,000  Level Los Angeles Center
12:42PM 34.8483 -118.7708 338° Northwest 411 473 40,000  Level Los Angeles Center
12:43PM 34.9589 -118.8261 338° Northwest 410 472 40,000  Level Los Angeles Center
12:44PM 35.0639 -118.8781 338° Northwest 408 470 40,000  Level Los Angeles Center
12:45PM 35.1689 -118.9308 338° Northwest 409 471 40,000  Level Los Angeles Center
12:46PM 35.2950 -118.9933 338° Northwest 409 471 40,000  Level Los Angeles Center
12:47PM 35.3997 -119.0472 337° Northwest 408 470 40,000  Level Los Angeles Center
12:48PM 35.5028 -119.1000 337° Northwest 405 466 40,000  Level Los Angeles Center
12:49PM 35.6036 -119.1619 333° Northwest 407 468 40,000  Level Los Angeles Center
12:50PM 35.7028 -119.2258 332° Northwest 404 465 40,000  Level Los Angeles Center
12:51PM 35.8225 -119.3017 333° Northwest 410 472 40,000  Level Oakland Center
12:52PM 35.9225 -119.3661 332° Northwest 409 471 40,000  Level Oakland Center
12:53PM 36.0208 -119.4283 333° Northwest 403 464 40,000  Level Oakland Center
12:54PM 36.1211 -119.4925 333° Northwest 406 467 40,000  Level Oakland Center
12:55PM 36.2214 -119.5561 333° Northwest 408 470 40,000  Level Oakland Center
12:57PM 36.3197 -119.6206 332° Northwest 403 464 40,000  Level Oakland Center
12:58PM 36.4389 -119.6986 332° Northwest 402 463 40,000  Level Oakland Center
12:59PM 36.5383 -119.7639 332° Northwest 405 466 40,000  Level Oakland Center
01:00PM 36.6369 -119.8294 332° Northwest 403 464 40,000  Level Oakland Center
01:01PM 36.7367 -119.8956 332° Northwest 406 467 40,000 -60 Level Oakland Center
01:02PM 36.8353 -119.9600 332° Northwest 401 461 39,900 -1,320 Descending Oakland Center
01:03PM 36.9319 -120.0244 332° Northwest 395 455 37,400 -2,640 Descending Oakland Center
01:04PM 37.0272 -120.0878 332° Northwest 388 447 34,600 -3,000 Descending Oakland Center
01:05PM 37.1336 -120.1586 332° Northwest 391 450 31,400 -2,760 Descending Oakland Center
01:06PM 37.2267 -120.2206 332° Northwest 378 435 29,000 -2,400 Descending Oakland Center
01:07PM 37.3192 -120.2814 332° Northwest 372 428 26,600 -2,340 Descending Oakland Center
01:08PM 37.4094 -120.3411 332° Northwest 364 419 24,300 -1,680 Descending Oakland Center
01:09PM 37.5000 -120.4167 327° Northwest 349 402 23,200 -1,140 Descending Northern Cal TRACON
01:10PM 37.5833 -120.5000 322° Northwest 350 403 22,100 -1,080 Descending Northern Cal TRACON
01:11PM 37.6500 -120.5667 322° Northwest 344 396 21,200 -960 Descending Northern Cal TRACON
01:12PM 37.7167 -120.6500 315° West 348 400 20,300 -1,020 Descending Northern Cal TRACON
01:13PM 37.8000 -120.7167 328° Northwest 341 392 19,200 -1,020 Descending Northern Cal TRACON
01:14PM 37.8667 -120.8000 315° West 341 392 18,300 -900 Descending Northern Cal TRACON
01:15PM 37.9500 -120.8667 328° Northwest 334 384 17,400 -960 Descending Northern Cal TRACON
01:16PM 38.0167 -120.9333 322° Northwest 339 390 16,400 -960 Descending Northern Cal TRACON
01:16PM 38.0250 -120.9522 299° West 336 387 16,200 -960 Descending Oakland Center
01:17PM 38.0928 -121.0283 319° Northwest 329 379 15,200 -960 Descending Oakland Center
01:18PM 38.1528 -121.1192 310° West 332 382 14,300 -1,020 Descending Oakland Center
01:19PM 38.2000 -121.1833 313° West 337 388 13,600 -1,140 Descending Northern Cal TRACON
01:20PM 38.2500 -121.2667 307° West 334 384 12,500 -1,080 Descending Northern Cal TRACON
01:21PM 38.3167 -121.3667 310° West 330 380 11,500 -780 Descending Northern Cal TRACON
01:22PM 38.3833 -121.4500 316° Northwest 326 375 11,000 -780 Descending Northern Cal TRACON
01:23PM 38.4333 -121.5333 307° West 313 360 10,000 -1,140 Descending Northern Cal TRACON
01:24PM 38.5000 -121.5833 330° Northwest 282 325 8,800 -1,440 Descending Northern Cal TRACON
01:25PM 38.5667 -121.6500 322° Northwest 277 319 7,200 -1,500 Descending Northern Cal TRACON
01:25PM 38.5972 -121.6694 334° Northwest 275 316 6,500 -1,140 Descending Oakland Center
01:26PM 38.6631 -121.6967 342° North 265 305 5,400 -1,680 Descending Oakland Center
01:27PM 38.7314 -121.7011 357° North 252 290 3,100 -1,200 Descending Oakland Center
01:28PM 38.7897 -121.6928 North 229 264 3,000 -420 Descending Oakland Center
01:29PM 38.7986 -121.6256 80° East 198 228 2,300 -900 Descending Oakland Center
01:30PM 38.8000 -121.6000 86° East 174 200 1,900 -1,080 Descending Northern Cal TRACON
01:31PM 38.7500 -121.6000 180° South 138 159 1,000 -840 Descending Northern Cal TRACON
01:32PM 38.7167 -121.6000 180° South 135 155 300 -720 Descending Northern Cal TRACON